Time;durP1;ratioP1;P1;durP2;ratioP2;P2;SDS_P1;SDS_P2;PMS_P1;PMS_P2;Temp;Humidity;BMP_temperature;BMP_pressure;BME280_temperature;BME280_humidity;BME280_pressure;Samples;Min_cycle;Max_cycle;Signal;HPM_P1;HPM_P2
2021/12/21 00:00:11;;;;;;;9.03;3.67;;;;;-3.10;96982.00;;;;8410004;28;20771;-71
2021/12/21 00:04:14;;;;;;;8.37;3.10;;;;;-3.10;96985.00;;;;8420147;28;20230;-71
2021/12/21 00:08:18;;;;;;;4.07;2.80;;;;;-3.00;96980.00;;;;8402355;28;20283;-68
2021/12/21 00:12:50;;;;;;;11.27;3.77;;;;;-3.00;96979.00;;;;8400756;28;20328;-73
2021/12/21 00:17:12;;;;;;;9.03;3.63;;;;;-3.10;96970.00;;;;8402296;28;20227;-70
2021/12/21 00:21:24;;;;;;;7.10;3.80;;;;;-3.20;96966.00;;;;8404465;28;20697;-69
2021/12/21 00:25:27;;;;;;;5.20;3.10;;;;;-3.20;96964.00;;;;8414349;28;20668;-70
2021/12/21 00:29:30;;;;;;;9.07;4.30;;;;;-3.30;96959.00;;;;8420566;28;20222;-70
2021/12/21 00:33:39;;;;;;;14.23;4.00;;;;;-3.20;96970.00;;;;8409981;28;20234;-69
2021/12/21 00:37:43;;;;;;;8.63;3.60;;;;;-3.20;96980.00;;;;8428402;28;20226;-69
2021/12/21 00:41:47;;;;;;;6.33;3.70;;;;;-3.10;96962.00;;;;8410456;28;20234;-73
2021/12/21 00:45:50;;;;;;;10.57;3.70;;;;;-3.20;96960.00;;;;8414467;28;20222;-69
2021/12/21 00:50:02;;;;;;;11.27;4.17;;;;;-3.30;96959.00;;;;8411122;28;20234;-70
2021/12/21 00:54:05;;;;;;;8.90;3.73;;;;;-3.30;96954.00;;;;8414202;28;20743;-69
2021/12/21 00:58:08;;;;;;;7.13;3.37;;;;;-3.30;96958.00;;;;8426448;28;20335;-68
2021/12/21 01:02:12;;;;;;;6.73;3.23;;;;;-3.40;96955.00;;;;8424532;28;20234;-70
2021/12/21 01:06:23;;;;;;;5.60;2.83;;;;;-3.40;96954.00;;;;8417970;28;20728;-69
2021/12/21 01:10:53;;;;;;;4.40;3.33;;;;;-3.50;96964.00;;;;8426401;28;20732;-70
2021/12/21 01:15:09;;;;;;;10.83;3.70;;;;;-3.60;96965.00;;;;8420936;28;20223;-68
2021/12/21 01:19:18;;;;;;;11.83;3.50;;;;;-3.60;96957.00;;;;8405821;28;20520;-68
2021/12/21 01:23:51;;;;;;;5.17;2.90;;;;;-3.70;96953.00;;;;8421878;28;20616;-69
2021/12/21 01:28:01;;;;;;;7.00;2.90;;;;;-3.80;96950.00;;;;8417192;28;20223;-70
2021/12/21 01:32:11;;;;;;;6.77;3.00;;;;;-3.70;96953.00;;;;8427890;28;20222;-69
2021/12/21 01:36:23;;;;;;;13.00;3.30;;;;;-3.70;96954.00;;;;8416167;28;20266;-70
2021/12/21 01:40:37;;;;;;;10.60;3.13;;;;;-3.70;96954.00;;;;8423569;28;20230;-68
2021/12/21 01:49:34;;;;;;;9.83;3.20;;;;;-3.80;96947.00;;;;8407045;28;20239;-70
2021/12/21 01:53:26;;;;;;;6.93;3.20;;;;;-3.80;96935.00;;;;8439426;28;20573;-69
2021/12/21 01:57:31;;;;;;;4.57;2.67;;;;;-3.90;96930.00;;;;8425843;28;20251;-72
2021/12/21 02:01:34;;;;;;;6.47;3.27;;;;;-3.90;96932.00;;;;8420348;28;20234;-70
2021/12/21 02:05:38;;;;;;;3.73;2.93;;;;;-3.80;96924.00;;;;8414759;28;20226;-71
2021/12/21 02:09:41;;;;;;;8.17;3.40;;;;;-3.60;96926.00;;;;8434015;28;20323;-69
2021/12/21 02:13:48;;;;;;;6.63;3.63;;;;;-3.10;96919.00;;;;8421891;28;20231;-70
2021/12/21 02:18:26;;;;;;;7.07;3.27;;;;;-2.80;96909.00;;;;8429019;28;20219;-72
2021/12/21 02:22:32;;;;;;;9.13;3.70;;;;;-2.60;96909.00;;;;8401664;28;20231;-72
2021/12/21 02:26:45;;;;;;;5.97;3.03;;;;;-2.70;96912.00;;;;8416222;28;20229;-75
2021/12/21 02:30:54;;;;;;;6.13;3.33;;;;;-2.80;96906.00;;;;8420201;28;20235;-72
2021/12/21 02:34:57;;;;;;;5.20;3.30;;;;;-3.00;96891.00;;;;8412485;28;20273;-71
2021/12/21 02:39:03;;;;;;;5.63;3.53;;;;;-3.10;96897.00;;;;8420007;28;20226;-69
2021/12/21 02:43:09;;;;;;;7.40;3.20;;;;;-3.10;96894.00;;;;8410818;28;20227;-71
2021/12/21 02:47:12;;;;;;;8.40;3.37;;;;;-3.00;96891.00;;;;8412121;28;20671;-70
2021/12/21 02:51:15;;;;;;;4.93;3.20;;;;;-2.90;96901.00;;;;8418764;28;20219;-72
2021/12/21 02:55:20;;;;;;;8.77;3.63;;;;;-2.80;96899.00;;;;8419582;28;20227;-69
2021/12/21 02:59:23;;;;;;;6.80;3.13;;;;;-2.80;96886.00;;;;8417626;28;20652;-70
2021/12/21 03:03:27;;;;;;;5.77;3.03;;;;;-2.70;96887.00;;;;8434268;23;20775;-71
2021/12/21 03:08:00;;;;;;;5.70;3.40;;;;;-2.50;96885.00;;;;8385786;28;20223;-70
2021/12/21 03:12:27;;;;;;;9.10;3.43;;;;;-2.60;96887.00;;;;8380485;28;20228;-70
2021/12/21 03:16:33;;;;;;;7.23;3.50;;;;;-2.80;96885.00;;;;8383537;28;20220;-73
2021/12/21 03:20:36;;;;;;;8.40;3.50;;;;;-3.00;96890.00;;;;8381067;28;20227;-68
2021/12/21 03:24:41;;;;;;;8.50;3.17;;;;;-3.20;96882.00;;;;8382590;28;20223;-72
2021/12/21 03:28:46;;;;;;;9.60;3.30;;;;;-3.40;96883.00;;;;8379725;28;20941;-72
2021/12/21 03:32:49;;;;;;;4.07;3.00;;;;;-3.30;96882.00;;;;8383223;28;20230;-69
2021/12/21 03:36:52;;;;;;;9.73;3.10;;;;;-3.10;96882.00;;;;8381843;28;20219;-70
2021/12/21 03:41:02;;;;;;;8.17;4.30;;;;;-3.00;96883.00;;;;8382223;28;20227;-72
2021/12/21 03:45:07;;;;;;;10.57;4.10;;;;;-3.10;96886.00;;;;8375388;28;20228;-72
2021/12/21 03:49:39;;;;;;;6.10;3.33;;;;;-3.20;96877.00;;;;8381306;28;20224;-68
2021/12/21 03:53:34;;;;;;;6.17;3.37;;;;;-3.30;96882.00;;;;8381771;28;20932;-72
2021/12/21 03:57:37;;;;;;;6.47;3.53;;;;;-3.40;96877.00;;;;8382137;28;20239;-72
2021/12/21 04:01:44;;;;;;;8.63;3.83;;;;;-3.50;96878.00;;;;8380725;28;20260;-71
2021/12/21 04:05:47;;;;;;;8.53;3.70;;;;;-3.60;96878.00;;;;8359911;28;20234;-72
2021/12/21 04:09:51;;;;;;;8.73;3.47;;;;;-3.70;96885.00;;;;8375120;28;20275;-69
2021/12/21 04:13:56;;;;;;;7.50;3.00;;;;;-3.80;96879.00;;;;8372322;28;20601;-69
2021/12/21 04:18:02;;;;;;;9.07;3.53;;;;;-3.90;96873.00;;;;8370656;28;20227;-69
2021/12/21 04:22:05;;;;;;;10.93;3.67;;;;;-3.90;96876.00;;;;8374721;28;20255;-69
2021/12/21 04:26:09;;;;;;;3.77;3.13;;;;;-4.00;96877.00;;;;8366016;28;20660;-68
2021/12/21 04:30:13;;;;;;;7.20;3.93;;;;;-4.10;96869.00;;;;8375232;28;20223;-72
2021/12/21 04:34:17;;;;;;;16.47;3.37;;;;;-4.10;96875.00;;;;8378811;28;20227;-68
2021/12/21 04:38:22;;;;;;;7.73;3.33;;;;;-3.90;96876.00;;;;8378790;28;20585;-73
2021/12/21 04:42:25;;;;;;;6.37;3.03;;;;;-3.60;96870.00;;;;8380176;28;20322;-69
2021/12/21 04:46:28;;;;;;;8.47;3.67;;;;;-3.50;96871.00;;;;8378163;28;20239;-72
2021/12/21 04:50:34;;;;;;;9.60;3.40;;;;;-3.60;96864.00;;;;8371015;28;20606;-70
2021/12/21 04:54:39;;;;;;;12.73;4.33;;;;;-3.80;96868.00;;;;8373953;28;20695;-70
2021/12/21 04:58:42;;;;;;;6.27;3.30;;;;;-3.90;96870.00;;;;8379695;28;20227;-69
2021/12/21 05:02:45;;;;;;;4.13;2.73;;;;;-4.00;96864.00;;;;8377121;28;20243;-73
2021/12/21 05:06:50;;;;;;;4.63;3.70;;;;;-4.20;96864.00;;;;8381691;28;20370;-68
2021/12/21 05:10:58;;;;;;;8.60;3.87;;;;;-4.30;96866.00;;;;8378622;28;20245;-74
2021/12/21 05:15:01;;;;;;;10.37;3.63;;;;;-4.30;96868.00;;;;8362915;28;20263;-67
2021/12/21 05:19:05;;;;;;;8.43;3.57;;;;;-4.40;96871.00;;;;8373701;28;20219;-68
2021/12/21 05:23:12;;;;;;;9.50;3.77;;;;;-4.40;96871.00;;;;8375993;28;20245;-68
2021/12/21 05:27:15;;;;;;;9.27;3.97;;;;;-4.50;96874.00;;;;8372796;28;20713;-67
2021/12/21 05:31:18;;;;;;;11.70;3.90;;;;;-4.50;96878.00;;;;8373573;28;20265;-69
2021/12/21 05:35:22;;;;;;;9.73;3.80;;;;;-4.40;96888.00;;;;8369238;28;20567;-69
2021/12/21 05:39:38;;;;;;;8.03;3.03;;;;;-4.30;96874.00;;;;8375718;28;20246;-76
2021/12/21 05:43:41;;;;;;;9.57;3.70;;;;;-4.30;96882.00;;;;8373509;28;20224;-68
2021/12/21 05:47:45;;;;;;;9.53;3.63;;;;;-4.30;96882.00;;;;8380078;28;20226;-70
2021/12/21 05:51:49;;;;;;;10.03;3.50;;;;;-4.30;96877.00;;;;8372416;28;20577;-68
2021/12/21 05:55:54;;;;;;;12.47;3.87;;;;;-4.40;96870.00;;;;8370558;28;20255;-69
2021/12/21 05:59:57;;;;;;;5.27;3.13;;;;;-4.40;96876.00;;;;8378079;28;20219;-68
2021/12/21 06:04:01;;;;;;;6.23;4.00;;;;;-4.50;96876.00;;;;8375564;28;20581;-67
2021/12/21 06:08:05;;;;;;;5.03;3.23;;;;;-4.50;96879.00;;;;8375889;28;20223;-66
2021/12/21 06:12:16;;;;;;;10.60;4.00;;;;;-4.60;96872.00;;;;8377656;28;20223;-65
2021/12/21 06:29:20;;;;;;;7.10;3.73;;;;;-4.70;96880.00;;;;8371255;28;20334;-69
2021/12/21 06:33:24;;;;;;;13.33;4.17;;;;;-4.60;96880.00;;;;8377605;28;20246;-67
2021/12/21 06:37:27;;;;;;;7.33;3.93;;;;;-4.70;96880.00;;;;8380600;28;20236;-67
2021/12/21 06:41:31;;;;;;;9.40;3.50;;;;;-4.70;96877.00;;;;8379257;28;20239;-67
2021/12/21 06:45:47;;;;;;;7.07;3.63;;;;;-4.70;96882.00;;;;8372396;28;20702;-70
2021/12/21 06:54:11;;;;;;;11.10;3.90;;;;;-4.90;96889.00;;;;8378799;28;20726;-69
2021/12/21 06:58:15;;;;;;;6.80;3.80;;;;;-4.90;96891.00;;;;8371322;28;20239;-66
2021/12/21 07:02:20;;;;;;;6.67;3.47;;;;;-4.90;96883.00;;;;8371213;28;20927;-66
2021/12/21 07:06:24;;;;;;;7.47;3.70;;;;;-5.00;96884.00;;;;8369152;28;20225;-66
2021/12/21 07:10:30;;;;;;;7.80;3.67;;;;;-4.90;96891.00;;;;8383409;28;20230;-68
2021/12/21 07:18:56;;;;;;;8.70;4.13;;;;;-5.00;96887.00;;;;8363857;28;20872;-65
2021/12/21 07:23:00;;;;;;;9.50;4.70;;;;;-5.10;96884.00;;;;8375756;28;20705;-69
2021/12/21 07:27:03;;;;;;;13.00;4.13;;;;;-5.10;96893.00;;;;8365000;28;20753;-68
2021/12/21 07:31:06;;;;;;;12.03;3.77;;;;;-5.00;96891.00;;;;8367651;28;20231;-68
2021/12/21 07:35:11;;;;;;;13.13;4.73;;;;;-5.00;96888.00;;;;8376520;28;20250;-67
2021/12/21 07:39:17;;;;;;;8.83;4.57;;;;;-4.90;96888.00;;;;8374428;28;20229;-69
2021/12/21 07:43:41;;;;;;;9.47;4.40;;;;;-4.80;96899.00;;;;8373932;28;20258;-68
2021/12/21 07:47:45;;;;;;;8.60;4.67;;;;;-4.80;96885.00;;;;8381391;28;20351;-66
2021/12/21 07:51:50;;;;;;;11.13;4.50;;;;;-4.70;96884.00;;;;8377125;28;20259;-68
2021/12/21 07:55:53;;;;;;;8.17;4.60;;;;;-4.40;96885.00;;;;8367420;28;20227;-68
2021/12/21 07:59:57;;;;;;;9.77;5.17;;;;;-4.10;96887.00;;;;8374482;28;20849;-68
2021/12/21 08:04:01;;;;;;;625.70;218.13;;;;;-3.70;96896.00;;;;8374868;28;20234;-67
2021/12/21 08:08:14;;;;;;;1999.90;769.83;;;;;-3.50;96884.00;;;;8379814;28;20250;-66
2021/12/21 08:12:23;;;;;;;137.37;51.73;;;;;-3.30;96892.00;;;;8375514;28;20247;-66
2021/12/21 08:16:27;;;;;;;17.40;6.90;;;;;-3.10;96897.00;;;;8362997;28;20251;-68
2021/12/21 08:20:30;;;;;;;19.20;8.97;;;;;-2.80;96901.00;;;;8359649;28;20231;-68
2021/12/21 08:24:35;;;;;;;594.20;220.17;;;;;-2.60;96908.00;;;;8370214;28;20256;-68
2021/12/21 08:28:39;;;;;;;871.33;333.97;;;;;-2.40;96913.00;;;;8365069;28;20238;-66
2021/12/21 08:32:42;;;;;;;25.37;11.13;;;;;-2.20;96918.00;;;;8364021;28;20248;-69
2021/12/21 08:36:45;;;;;;;20.73;9.60;;;;;-2.00;96921.00;;;;8372973;28;20235;-67
2021/12/21 08:40:53;;;;;;;11.07;7.17;;;;;-1.90;96916.00;;;;8374819;28;20248;-66
2021/12/21 08:44:59;;;;;;;25.80;15.97;;;;;-1.70;96928.00;;;;8362163;28;20263;-69
2021/12/21 08:49:02;;;;;;;6.67;4.50;;;;;-1.50;96925.00;;;;8365758;28;20243;-66
2021/12/21 08:53:06;;;;;;;11.93;5.17;;;;;-1.40;96932.00;;;;8368557;28;20224;-68
2021/12/21 08:57:10;;;;;;;10.90;5.67;;;;;-1.40;96926.00;;;;8366953;28;20231;-69
2021/12/21 09:01:13;;;;;;;10.73;4.20;;;;;-1.40;96919.00;;;;8362332;28;20778;-71
2021/12/21 09:05:20;;;;;;;7.73;4.33;;;;;-1.40;96921.00;;;;8369549;28;20221;-67
2021/12/21 09:09:23;;;;;;;14.73;5.13;;;;;-1.30;96921.00;;;;8367412;28;20243;-69
2021/12/21 09:13:27;;;;;;;8.13;4.33;;;;;-1.30;96930.00;;;;8368677;28;20244;-66
2021/12/21 09:17:31;;;;;;;7.40;4.60;;;;;-1.30;96925.00;;;;8363717;28;20646;-70
2021/12/21 09:21:34;;;;;;;6.83;4.70;;;;;-1.20;96928.00;;;;8378438;28;20622;-70
2021/12/21 09:25:38;;;;;;;7.43;4.97;;;;;-1.10;96927.00;;;;8377149;28;20234;-69
2021/12/21 09:29:43;;;;;;;6.10;4.27;;;;;-1.00;96932.00;;;;8376781;28;20633;-65
2021/12/21 09:33:46;;;;;;;7.47;4.60;;;;;-0.90;96930.00;;;;8369188;28;20319;-71
2021/12/21 09:37:49;;;;;;;9.77;4.83;;;;;-0.90;96927.00;;;;8372418;28;20615;-67
2021/12/21 09:41:53;;;;;;;10.27;4.60;;;;;-0.80;96909.00;;;;8376628;28;20250;-67
2021/12/21 09:45:58;;;;;;;12.13;4.43;;;;;-0.70;96907.00;;;;8374251;28;20255;-68
2021/12/21 09:50:02;;;;;;;14.60;4.60;;;;;-0.60;96915.00;;;;8372287;28;20247;-71
2021/12/21 09:54:08;;;;;;;8.60;4.87;;;;;-0.50;96910.00;;;;8374552;28;20263;-68
2021/12/21 09:58:11;;;;;;;12.53;5.47;;;;;-0.50;96901.00;;;;8375986;28;20278;-67
2021/12/21 10:02:19;;;;;;;18.53;5.30;;;;;-0.40;96903.00;;;;8372610;28;20235;-70
2021/12/21 10:06:22;;;;;;;9.33;4.40;;;;;-0.30;96907.00;;;;8374524;28;20228;-68
2021/12/21 10:10:26;;;;;;;8.37;5.63;;;;;-0.20;96897.00;;;;8367081;28;20327;-67
2021/12/21 10:14:30;;;;;;;9.10;4.13;;;;;-0.10;96906.00;;;;8369947;28;20231;-68
2021/12/21 10:18:38;;;;;;;11.13;4.87;;;;;0.00;96900.00;;;;8368436;28;20232;-69
2021/12/21 10:22:50;;;;;;;11.60;4.93;;;;;0.10;96895.00;;;;8372775;28;20331;-69
2021/12/21 10:26:55;;;;;;;6.40;4.23;;;;;0.20;96886.00;;;;8371284;28;20254;-69
2021/12/21 10:31:01;;;;;;;6.53;4.60;;;;;0.20;96886.00;;;;8366604;28;20319;-67
2021/12/21 10:35:08;;;;;;;7.17;4.40;;;;;0.30;96881.00;;;;8374391;28;20251;-68
2021/12/21 10:39:20;;;;;;;7.73;4.60;;;;;0.30;96888.00;;;;8378190;28;20235;-69
2021/12/21 10:43:29;;;;;;;9.47;4.60;;;;;0.50;96885.00;;;;8372265;28;20965;-67
2021/12/21 10:47:34;;;;;;;7.53;4.10;;;;;0.60;96884.00;;;;8369303;28;20328;-68
2021/12/21 10:51:52;;;;;;;9.20;4.40;;;;;0.70;96882.00;;;;8370619;28;20228;-72
2021/12/21 10:56:06;;;;;;;6.37;4.27;;;;;0.80;96885.00;;;;8367499;28;20697;-70
2021/12/21 11:00:14;;;;;;;8.23;4.27;;;;;0.90;96879.00;;;;8369852;28;20248;-67
2021/12/21 11:04:21;;;;;;;8.80;4.70;;;;;0.90;96879.00;;;;8368332;28;20931;-68
2021/12/21 11:08:27;;;;;;;5.73;4.10;;;;;1.00;96881.00;;;;8368205;28;20474;-70
2021/12/21 11:12:42;;;;;;;8.67;5.87;;;;;1.20;96882.00;;;;8365560;28;20240;-69
2021/12/21 11:16:47;;;;;;;14.47;4.90;;;;;1.40;96875.00;;;;8366724;28;20327;-73
2021/12/21 11:20:53;;;;;;;5.47;4.10;;;;;1.40;96874.00;;;;8368137;28;20230;-70
2021/12/21 11:25:00;;;;;;;6.97;3.93;;;;;1.40;96864.00;;;;8369966;28;20295;-70
2021/12/21 11:29:05;;;;;;;7.53;3.57;;;;;1.40;96862.00;;;;8379043;28;20305;-71
2021/12/21 11:33:10;;;;;;;7.47;3.80;;;;;1.40;96852.00;;;;8363910;28;20305;-70
2021/12/21 11:37:25;;;;;;;7.93;4.00;;;;;1.40;96853.00;;;;8372942;28;20225;-70
2021/12/21 11:41:31;;;;;;;10.80;5.10;;;;;1.40;96847.00;;;;8377961;28;20312;-71
2021/12/21 11:45:39;;;;;;;9.63;4.43;;;;;1.40;96847.00;;;;8376290;28;20255;-71
2021/12/21 11:49:46;;;;;;;13.57;4.07;;;;;1.50;96847.00;;;;8378128;28;20229;-71
2021/12/21 11:53:49;;;;;;;7.90;4.90;;;;;1.60;96840.00;;;;8364870;28;20680;-71
2021/12/21 11:57:56;;;;;;;8.17;6.00;;;;;1.60;96839.00;;;;8362636;28;20419;-70
2021/12/21 12:02:03;;;;;;;6.03;4.30;;;;;1.70;96844.00;;;;8376190;28;20230;-70
2021/12/21 12:06:13;;;;;;;9.03;4.67;;;;;1.70;96833.00;;;;8365901;28;20221;-70
2021/12/21 12:10:17;;;;;;;6.50;4.20;;;;;1.70;96837.00;;;;8362045;28;20308;-70
2021/12/21 12:14:22;;;;;;;6.20;4.07;;;;;1.80;96842.00;;;;8365014;28;20315;-70
2021/12/21 12:18:28;;;;;;;7.43;4.03;;;;;1.80;96846.00;;;;8371085;28;20747;-70
2021/12/21 12:22:34;;;;;;;8.77;4.20;;;;;1.80;96837.00;;;;8370842;28;20232;-70
2021/12/21 12:26:39;;;;;;;7.03;4.03;;;;;1.80;96835.00;;;;8373372;28;20326;-70
2021/12/21 12:30:49;;;;;;;6.93;4.50;;;;;1.80;96836.00;;;;8364748;28;20222;-70
2021/12/21 12:35:01;;;;;;;6.83;4.23;;;;;1.70;96822.00;;;;8366242;28;20835;-71
2021/12/21 12:39:06;;;;;;;5.37;3.57;;;;;1.80;96832.00;;;;8381811;28;20308;-70
2021/12/21 12:43:13;;;;;;;8.40;4.60;;;;;1.80;96834.00;;;;8379420;28;20231;-70
2021/12/21 12:47:18;;;;;;;10.93;4.50;;;;;1.90;96816.00;;;;8364130;28;20581;-72
2021/12/21 12:51:26;;;;;;;10.93;4.40;;;;;2.00;96820.00;;;;8372537;28;20968;-69
2021/12/21 12:55:38;;;;;;;10.13;4.70;;;;;2.10;96826.00;;;;8374250;28;20835;-68
2021/12/21 13:00:13;;;;;;;8.70;4.33;;;;;2.20;96821.00;;;;8373220;28;20238;-70
2021/12/21 13:04:18;;;;;;;7.80;5.23;;;;;2.30;96817.00;;;;8369846;28;20337;-71
2021/12/21 13:08:23;;;;;;;7.07;4.50;;;;;2.30;96815.00;;;;8369324;28;20695;-71
2021/12/21 13:12:26;;;;;;;11.73;4.90;;;;;2.40;96811.00;;;;8367139;28;20270;-69
2021/12/21 13:16:35;;;;;;;9.10;4.87;;;;;2.60;96812.00;;;;8370453;28;20234;-70
2021/12/21 13:20:42;;;;;;;8.20;4.93;;;;;2.80;96805.00;;;;8367885;28;20227;-73
2021/12/21 13:24:48;;;;;;;9.00;5.30;;;;;2.90;96812.00;;;;8376483;28;20257;-74
2021/12/21 13:28:55;;;;;;;10.97;5.80;;;;;3.00;96806.00;;;;8368746;28;20234;-74
2021/12/21 13:33:00;;;;;;;14.23;5.60;;;;;3.00;96811.00;;;;8374677;28;20286;-73
2021/12/21 13:37:07;;;;;;;10.17;6.27;;;;;2.90;96821.00;;;;8378920;28;20241;-73
2021/12/21 13:41:13;;;;;;;9.27;5.70;;;;;2.90;96824.00;;;;8379212;28;20345;-76
2021/12/21 13:45:16;;;;;;;9.80;5.77;;;;;2.70;96816.00;;;;8377639;28;20608;-75
2021/12/21 13:49:20;;;;;;;18.97;8.13;;;;;2.50;96826.00;;;;8389110;28;20312;-72
2021/12/21 13:53:25;;;;;;;15.17;6.43;;;;;2.30;96824.00;;;;8379992;28;20228;-72
2021/12/21 13:57:29;;;;;;;11.20;6.40;;;;;2.20;96826.00;;;;8374397;28;20263;-73
2021/12/21 14:01:35;;;;;;;9.70;5.70;;;;;2.00;96827.00;;;;8383748;28;20262;-72
2021/12/21 14:05:43;;;;;;;8.53;5.73;;;;;1.90;96819.00;;;;8381712;28;20685;-73
2021/12/21 14:09:48;;;;;;;6.53;4.60;;;;;1.80;96828.00;;;;8385059;28;20229;-75
2021/12/21 14:13:53;;;;;;;11.60;5.50;;;;;1.70;96820.00;;;;8368628;28;20268;-72
2021/12/21 14:17:56;;;;;;;12.20;5.80;;;;;1.60;96832.00;;;;8375090;28;20241;-73
2021/12/21 14:21:59;;;;;;;8.87;5.37;;;;;1.50;96828.00;;;;8385526;28;21000;-72
2021/12/21 14:26:10;;;;;;;10.90;6.03;;;;;1.40;96829.00;;;;8384328;28;20831;-71
2021/12/21 14:30:17;;;;;;;9.50;4.87;;;;;1.40;96828.00;;;;8362248;28;20643;-73
2021/12/21 14:34:22;;;;;;;8.60;5.03;;;;;1.40;96824.00;;;;8372149;28;20300;-72
2021/12/21 14:38:25;;;;;;;8.37;4.77;;;;;1.30;96818.00;;;;8365834;28;20332;-71
2021/12/21 14:42:33;;;;;;;12.13;6.17;;;;;1.20;96824.00;;;;8373037;28;20270;-72
2021/12/21 14:46:38;;;;;;;10.40;6.10;;;;;1.20;96822.00;;;;8379780;28;20661;-73
2021/12/21 14:50:47;;;;;;;20.53;8.60;;;;;1.20;96819.00;;;;8384267;28;20277;-71
2021/12/21 14:54:54;;;;;;;12.80;6.73;;;;;1.10;96824.00;;;;8384073;28;20236;-73
2021/12/21 14:59:00;;;;;;;11.37;6.20;;;;;1.00;96830.00;;;;8382724;28;20293;-72
2021/12/21 15:03:08;;;;;;;31.53;13.90;;;;;1.00;96835.00;;;;8383906;28;20605;-71
2021/12/21 15:07:12;;;;;;;25.47;11.73;;;;;0.90;96829.00;;;;8365257;28;20775;-71
2021/12/21 15:11:23;;;;;;;15.20;8.13;;;;;0.80;96828.00;;;;8380380;28;20300;-72
2021/12/21 15:15:28;;;;;;;10.00;6.60;;;;;0.60;96825.00;;;;8372586;28;20232;-72
2021/12/21 15:19:31;;;;;;;13.53;5.40;;;;;0.50;96828.00;;;;8377914;28;20260;-72
2021/12/21 15:23:35;;;;;;;9.37;5.53;;;;;0.30;96831.00;;;;8366747;28;20255;-71
2021/12/21 15:27:39;;;;;;;17.83;6.67;;;;;0.10;96828.00;;;;8381682;28;20310;-72
2021/12/21 15:31:44;;;;;;;12.40;5.50;;;;;0.10;96830.00;;;;8381641;28;20251;-70
2021/12/21 15:35:47;;;;;;;12.10;5.47;;;;;-0.10;96831.00;;;;8377630;28;20224;-72
2021/12/21 15:39:51;;;;;;;12.27;5.60;;;;;-0.30;96833.00;;;;8378771;28;20251;-70
2021/12/21 15:43:54;;;;;;;10.63;5.90;;;;;-0.50;96830.00;;;;8381425;28;20299;-72
2021/12/21 15:48:03;;;;;;;13.13;6.33;;;;;-0.60;96833.00;;;;8380997;28;20248;-72
2021/12/21 15:52:08;;;;;;;15.50;6.37;;;;;-0.80;96833.00;;;;8382582;28;20215;-72
2021/12/21 15:56:13;;;;;;;10.03;6.83;;;;;-0.80;96833.00;;;;8383528;28;20219;-72
2021/12/21 16:00:18;;;;;;;14.40;6.57;;;;;-0.80;96831.00;;;;8382693;28;20236;-70
2021/12/21 16:04:23;;;;;;;14.00;7.23;;;;;-0.90;96842.00;;;;8380928;28;20646;-74
2021/12/21 16:08:26;;;;;;;23.17;9.10;;;;;-0.90;96837.00;;;;8382148;28;20788;-74
2021/12/21 16:12:29;;;;;;;18.93;8.00;;;;;-1.00;96835.00;;;;8381485;28;20227;-73
2021/12/21 16:16:32;;;;;;;12.00;6.13;;;;;-1.10;96846.00;;;;8381775;28;20227;-73
2021/12/21 16:20:38;;;;;;;12.40;5.40;;;;;-1.20;96832.00;;;;8381188;28;20251;-73
2021/12/21 16:24:42;;;;;;;11.17;5.30;;;;;-1.30;96839.00;;;;8368654;28;20310;-73
2021/12/21 16:28:45;;;;;;;9.47;5.40;;;;;-1.40;96843.00;;;;8376400;28;20302;-72
2021/12/21 16:32:51;;;;;;;6.97;4.90;;;;;-1.50;96847.00;;;;8382206;28;20266;-72
2021/12/21 16:36:55;;;;;;;8.70;5.03;;;;;-1.60;96845.00;;;;8377717;28;20239;-72
2021/12/21 16:40:59;;;;;;;9.17;6.20;;;;;-1.60;96853.00;;;;8372422;28;20225;-72
2021/12/21 16:45:02;;;;;;;15.27;5.47;;;;;-1.60;96860.00;;;;8364115;28;20640;-72
2021/12/21 16:49:06;;;;;;;9.23;5.47;;;;;-1.60;96854.00;;;;8371316;28;20236;-73
2021/12/21 16:53:11;;;;;;;10.87;5.30;;;;;-1.50;96848.00;;;;8373754;28;20230;-73
2021/12/21 16:57:15;;;;;;;12.50;5.03;;;;;-1.50;96860.00;;;;8366707;28;20258;-73
2021/12/21 17:01:18;;;;;;;9.20;5.40;;;;;-1.50;96847.00;;;;8379372;28;20219;-74
2021/12/21 17:05:22;;;;;;;13.90;5.80;;;;;-1.40;96851.00;;;;8379452;28;20255;-74
2021/12/21 17:09:28;;;;;;;10.00;5.57;;;;;-1.50;96852.00;;;;8372413;28;20220;-72
2021/12/21 17:13:31;;;;;;;19.93;6.67;;;;;-1.50;96853.00;;;;8378118;28;20590;-73
2021/12/21 17:17:34;;;;;;;12.10;7.00;;;;;-1.40;96849.00;;;;8379335;28;20645;-72
2021/12/21 17:21:37;;;;;;;11.27;5.97;;;;;-1.30;96848.00;;;;8378879;28;20351;-69
2021/12/21 17:25:42;;;;;;;12.50;7.03;;;;;-1.30;96851.00;;;;8379902;28;20231;-73
2021/12/21 17:29:46;;;;;;;17.13;6.27;;;;;-1.20;96843.00;;;;8379317;28;20335;-77
2021/12/21 17:33:50;;;;;;;12.97;7.20;;;;;-1.10;96852.00;;;;8378104;28;20220;-76
2021/12/21 17:37:59;;;;;;;13.53;6.20;;;;;-1.20;96848.00;;;;8372856;28;20674;-78
2021/12/21 17:42:06;;;;;;;14.37;7.00;;;;;-1.20;96842.00;;;;8378382;28;20315;-78
2021/12/21 17:46:11;;;;;;;10.80;6.47;;;;;-1.40;96852.00;;;;8375411;28;20331;-77
2021/12/21 17:50:14;;;;;;;16.53;6.87;;;;;-1.50;96843.00;;;;8376835;28;20259;-75
2021/12/21 17:54:18;;;;;;;13.93;7.27;;;;;-1.70;96838.00;;;;8378261;28;20269;-74
2021/12/21 17:58:22;;;;;;;20.37;7.50;;;;;-1.80;96840.00;;;;8375849;28;20243;-76
2021/12/21 18:02:27;;;;;;;63.70;12.93;;;;;-2.00;96846.00;;;;8371301;28;20877;-77
2021/12/21 18:06:30;;;;;;;69.40;15.90;;;;;-2.10;96846.00;;;;8369080;28;20223;-73
2021/12/21 18:10:34;;;;;;;33.77;10.20;;;;;-2.30;96841.00;;;;8379814;28;20320;-77
2021/12/21 18:14:38;;;;;;;22.77;9.13;;;;;-2.40;96853.00;;;;8370061;28;20339;-79
2021/12/21 18:18:46;;;;;;;54.97;11.40;;;;;-2.50;96851.00;;;;8379571;28;20642;-74
2021/12/21 18:22:49;;;;;;;32.90;10.03;;;;;-2.60;96854.00;;;;8381959;28;20224;-73
2021/12/21 18:26:52;;;;;;;51.30;12.50;;;;;-2.60;96855.00;;;;8371270;28;20312;-78
2021/12/21 18:30:58;;;;;;;42.50;12.87;;;;;-2.60;96851.00;;;;8371755;28;20305;-79
2021/12/21 18:35:01;;;;;;;38.87;11.13;;;;;-2.70;96860.00;;;;8377303;28;20231;-81
2021/12/21 18:39:06;;;;;;;26.77;9.53;;;;;-2.70;96866.00;;;;8371373;28;20314;-77
2021/12/21 18:43:09;;;;;;;20.47;9.37;;;;;-2.70;96863.00;;;;8368201;28;20935;-79
2021/12/21 18:47:14;;;;;;;24.20;9.97;;;;;-2.70;96876.00;;;;8368824;28;20708;-74
2021/12/21 18:51:18;;;;;;;18.73;8.27;;;;;-2.70;96870.00;;;;8375672;28;20223;-79
2021/12/21 18:55:23;;;;;;;16.20;8.23;;;;;-2.70;96877.00;;;;8372798;28;20278;-77
2021/12/21 18:59:26;;;;;;;16.80;8.70;;;;;-2.60;96871.00;;;;8369565;28;20335;-78
2021/12/21 19:03:34;;;;;;;15.37;8.07;;;;;-2.50;96884.00;;;;8374222;28;20262;-78
2021/12/21 19:07:39;;;;;;;16.73;8.17;;;;;-2.40;96879.00;;;;8368000;28;20727;-76
2021/12/21 19:11:42;;;;;;;19.97;9.33;;;;;-2.40;96895.00;;;;8366220;28;20249;-79
2021/12/21 19:15:46;;;;;;;18.23;8.73;;;;;-2.30;96894.00;;;;8372026;28;20676;-80
2021/12/21 19:19:50;;;;;;;17.83;8.13;;;;;-2.40;96892.00;;;;8375031;28;20270;-76
2021/12/21 19:23:55;;;;;;;13.40;6.90;;;;;-2.50;96885.00;;;;8381321;28;20251;-80
2021/12/21 19:28:02;;;;;;;16.00;8.07;;;;;-2.50;96900.00;;;;8378204;28;20236;-78
2021/12/21 19:32:05;;;;;;;18.07;8.20;;;;;-2.60;96892.00;;;;8370944;28;20307;-76
2021/12/21 19:36:10;;;;;;;14.53;7.27;;;;;-2.60;96884.00;;;;8373285;28;20267;-77
2021/12/21 19:40:15;;;;;;;13.37;6.53;;;;;-2.70;96884.00;;;;8377431;28;20262;-76
2021/12/21 19:44:18;;;;;;;11.70;6.73;;;;;-2.80;96884.00;;;;8368931;28;20255;-80
2021/12/21 19:48:21;;;;;;;14.43;7.30;;;;;-2.80;96895.00;;;;8378205;28;20256;-77
2021/12/21 19:52:27;;;;;;;12.17;7.10;;;;;-2.90;96889.00;;;;8378592;28;20212;-77
2021/12/21 19:56:31;;;;;;;13.43;7.27;;;;;-2.80;96883.00;;;;8380369;28;20258;-82
2021/12/21 20:00:35;;;;;;;17.20;7.83;;;;;-2.70;96891.00;;;;8357654;28;20232;-77
2021/12/21 20:04:39;;;;;;;15.60;8.37;;;;;-2.70;96900.00;;;;8375810;28;20227;-74
2021/12/21 20:08:44;;;;;;;18.13;8.40;;;;;-2.60;96888.00;;;;8372535;28;20252;-78
2021/12/21 20:12:51;;;;;;;11.50;6.57;;;;;-2.70;96895.00;;;;8377208;28;20249;-77
2021/12/21 20:16:58;;;;;;;13.30;7.13;;;;;-2.70;96891.00;;;;8368097;28;20239;-76
2021/12/21 20:21:01;;;;;;;18.93;7.33;;;;;-2.90;96896.00;;;;8372763;28;20232;-74
2021/12/21 20:25:06;;;;;;;28.30;10.40;;;;;-3.00;96896.00;;;;8355538;28;20256;-77
2021/12/21 20:29:10;;;;;;;21.63;9.50;;;;;-3.10;96905.00;;;;8377780;28;20264;-78
2021/12/21 20:33:14;;;;;;;17.60;8.50;;;;;-3.30;96904.00;;;;8374166;28;20949;-77
2021/12/21 20:37:20;;;;;;;19.37;8.90;;;;;-3.40;96903.00;;;;8362112;28;20216;-80
2021/12/21 20:41:25;;;;;;;20.80;8.37;;;;;-3.50;96909.00;;;;8365458;28;20231;-73
2021/12/21 20:45:31;;;;;;;17.47;7.70;;;;;-3.70;96904.00;;;;8375485;28;20657;-72
2021/12/21 20:49:35;;;;;;;16.83;7.90;;;;;-3.90;96909.00;;;;8359085;28;20697;-76